createdAt,value
2019-04-29T00:01:56.389Z,14.30
2019-04-29T00:04:24.898Z,14.17
2019-04-29T00:06:53.296Z,13.50
2019-04-29T00:09:21.783Z,14.60
2019-04-29T00:11:50.311Z,14.63
2019-04-29T00:14:18.807Z,14.70
2019-04-29T00:16:53.463Z,14.40
2019-04-29T00:19:30.775Z,13.33
2019-04-29T00:21:59.739Z,14.23
2019-04-29T00:24:28.231Z,13.67
2019-04-29T00:26:56.747Z,13.67
2019-04-29T00:29:25.315Z,14.30
2019-04-29T00:31:53.883Z,13.90
2019-04-29T00:34:22.295Z,13.90
2019-04-29T00:37:07.239Z,13.80
2019-04-29T00:40:00.635Z,12.93
2019-04-29T00:42:48.355Z,13.40
2019-04-29T00:45:16.838Z,14.77
2019-04-29T00:47:45.337Z,14.50
2019-04-29T00:50:14.296Z,15.90
2019-04-29T00:52:43.264Z,16.00
2019-04-29T00:55:14.956Z,15.70
2019-04-29T00:57:43.396Z,16.30
2019-04-29T01:00:16.180Z,16.20
2019-04-29T01:02:44.596Z,15.90
2019-04-29T01:05:13.008Z,16.80
2019-04-29T01:07:41.424Z,16.37
2019-04-29T01:10:10.184Z,16.63
2019-04-29T01:12:38.604Z,16.33
2019-04-29T01:15:07.092Z,15.33
2019-04-29T01:17:35.657Z,15.07
2019-04-29T01:20:04.819Z,15.97
2019-04-29T01:22:33.260Z,16.00
2019-04-29T01:25:01.749Z,14.97
2019-04-29T01:27:35.923Z,16.07
2019-04-29T01:30:04.988Z,16.80
2019-04-29T01:32:33.460Z,15.80
2019-04-29T01:35:01.884Z,15.93
2019-04-29T01:37:48.628Z,16.13
2019-04-29T01:40:41.806Z,16.80
2019-04-29T01:43:10.236Z,16.93
2019-04-29T01:45:38.726Z,16.50
2019-04-29T01:48:07.205Z,16.63
2019-04-29T01:50:35.631Z,16.63
2019-04-29T01:53:04.142Z,15.80
2019-04-29T01:55:32.573Z,17.17
2019-04-29T01:58:01.082Z,16.40
2019-04-29T02:00:29.581Z,16.50
2019-04-29T02:02:58.061Z,16.37
2019-04-29T02:05:26.561Z,16.97
2019-04-29T02:07:55.125Z,16.50
2019-04-29T02:10:29.370Z,15.80
2019-04-29T02:12:57.885Z,16.07
2019-04-29T02:15:26.688Z,14.57
2019-04-29T02:17:55.081Z,15.63
2019-04-29T02:20:23.589Z,15.27
2019-04-29T02:23:11.589Z,14.27
2019-04-29T02:25:42.213Z,13.90
2019-04-29T02:28:10.792Z,14.57
2019-04-29T02:30:44.646Z,13.83
2019-04-29T02:33:13.222Z,13.90
2019-04-29T02:35:41.967Z,14.50
2019-04-29T02:38:15.527Z,14.87
2019-04-29T02:41:03.141Z,13.97
2019-04-29T02:43:32.717Z,13.97
2019-04-29T02:46:01.239Z,14.10
2019-04-29T02:48:34.247Z,14.43
2019-04-29T02:50:59.810Z,14.30
2019-04-29T02:53:28.214Z,14.13
2019-04-29T02:55:58.399Z,13.10
2019-04-29T02:58:33.404Z,14.50
2019-04-29T03:01:09.935Z,13.50
2019-04-29T03:03:56.645Z,13.77
2019-04-29T03:06:25.215Z,13.57
2019-04-29T03:08:53.702Z,14.43
2019-04-29T03:11:22.490Z,13.87
2019-04-29T03:13:50.988Z,14.43
2019-04-29T03:16:19.468Z,13.70
2019-04-29T03:18:51.960Z,14.30
2019-04-29T03:21:30.597Z,14.67
2019-04-29T03:23:59.093Z,14.10
2019-04-29T03:26:27.572Z,14.63
2019-04-29T03:28:56.130Z,14.33
2019-04-29T03:31:24.664Z,14.27
2019-04-29T03:33:53.488Z,14.03
2019-04-29T03:36:21.991Z,14.03
2019-04-29T03:38:50.492Z,14.47
2019-04-29T03:41:18.967Z,14.03
2019-04-29T03:43:47.480Z,14.87
2019-04-29T03:46:16.058Z,15.87
2019-04-29T03:48:44.459Z,15.80
2019-04-29T03:51:13.235Z,15.63
2019-04-29T03:53:41.755Z,16.27
2019-04-29T03:56:10.283Z,16.13
2019-04-29T03:58:38.713Z,14.93
2019-04-29T04:01:28.369Z,15.87
2019-04-29T04:04:05.012Z,16.07
2019-04-29T04:06:44.811Z,15.63
2019-04-29T04:09:25.136Z,15.73
2019-04-29T04:11:53.637Z,15.93
2019-04-29T04:14:22.194Z,16.10
2019-04-29T04:17:24.897Z,16.37
2019-04-29T04:19:53.376Z,17.00
2019-04-29T04:22:21.801Z,16.93
2019-04-29T04:24:52.444Z,16.20
2019-04-29T04:27:20.973Z,16.73
2019-04-29T04:29:49.490Z,17.20
2019-04-29T04:32:21.253Z,16.67
2019-04-29T04:34:49.875Z,16.13
2019-04-29T04:37:18.367Z,16.00
2019-04-29T04:39:46.948Z,16.20
2019-04-29T04:42:15.416Z,15.27
2019-04-29T04:44:49.851Z,17.30
2019-04-29T04:47:18.848Z,16.40
2019-04-29T04:49:47.484Z,16.90
2019-04-29T04:52:16.004Z,15.70
2019-04-29T04:54:46.218Z,16.67
2019-04-29T04:57:14.732Z,16.67
2019-04-29T04:59:43.240Z,16.47
2019-04-29T05:02:11.775Z,16.23
2019-04-29T05:04:40.276Z,16.63
2019-04-29T05:07:08.788Z,16.87
2019-04-29T05:09:37.282Z,18.00
2019-04-29T05:12:05.788Z,16.73
2019-04-29T05:14:34.257Z,16.93
2019-04-29T05:17:03.018Z,15.90
2019-04-29T05:19:31.426Z,17.70
2019-04-29T05:21:59.929Z,16.47
2019-04-29T05:24:28.497Z,16.43
2019-04-29T05:26:56.994Z,16.23
2019-04-29T05:29:28.495Z,16.23
2019-04-29T05:31:55.669Z,16.37
2019-04-29T05:34:25.805Z,16.03
2019-04-29T05:37:02.822Z,16.57
2019-04-29T05:39:34.301Z,16.83
2019-04-29T05:42:02.825Z,16.60
2019-04-29T05:44:55.617Z,16.50
2019-04-29T05:47:45.953Z,16.70
2019-04-29T05:50:20.785Z,15.67
2019-04-29T05:53:03.938Z,16.80
2019-04-29T05:55:32.493Z,16.10
2019-04-29T05:58:13.305Z,15.30
2019-04-29T06:00:43.305Z,16.60
2019-04-29T06:03:12.125Z,16.30
2019-04-29T06:05:40.921Z,17.30
2019-04-29T06:08:09.417Z,16.17
2019-04-29T06:10:37.842Z,16.43
2019-04-29T06:13:06.349Z,16.37
2019-04-29T06:15:34.782Z,16.27
2019-04-29T06:18:03.250Z,15.47
2019-04-29T06:20:31.790Z,16.57
2019-04-29T06:23:00.304Z,15.83
2019-04-29T06:25:28.798Z,16.37
2019-04-29T06:27:57.286Z,16.43
2019-04-29T06:30:25.797Z,17.77
2019-04-29T06:32:54.274Z,16.37
2019-04-29T06:35:23.101Z,16.37
2019-04-29T06:37:51.601Z,16.33
2019-04-29T06:40:20.189Z,15.50
2019-04-29T06:42:49.390Z,16.40
2019-04-29T06:45:18.918Z,17.23
2019-04-29T06:47:47.365Z,14.93
2019-04-29T06:50:16.226Z,15.03
2019-04-29T06:52:44.642Z,15.67
2019-04-29T06:55:13.362Z,15.37
2019-04-29T06:57:41.851Z,14.80
2019-04-29T07:00:10.818Z,14.97
2019-04-29T07:02:39.302Z,14.47
2019-04-29T07:05:07.818Z,13.80
2019-04-29T07:07:36.350Z,15.60
2019-04-29T07:10:04.933Z,14.40
2019-04-29T07:12:33.427Z,14.40
2019-04-29T07:15:01.955Z,13.87
2019-04-29T07:17:30.452Z,13.40
2019-04-29T07:20:02.088Z,12.83
2019-04-29T07:22:31.164Z,13.77
2019-04-29T07:24:59.323Z,13.87
2019-04-29T07:27:28.175Z,13.20
2019-04-29T07:29:56.899Z,13.17
2019-04-29T07:32:25.578Z,11.03
2019-04-29T07:34:54.175Z,12.87
2019-04-29T07:37:22.727Z,12.63
2019-04-29T07:39:51.675Z,11.93
2019-04-29T07:42:20.515Z,12.70
2019-04-29T07:45:06.804Z,13.20
2019-04-29T07:47:36.236Z,11.67
2019-04-29T07:50:05.557Z,12.20
2019-04-29T07:52:34.115Z,11.83
2019-04-29T07:55:02.824Z,12.87
2019-04-29T07:57:31.379Z,11.93
2019-04-29T07:59:59.807Z,12.93
2019-04-29T08:02:28.303Z,12.30
2019-04-29T08:04:59.047Z,13.10
2019-04-29T08:07:27.659Z,12.30
2019-04-29T08:09:56.568Z,12.97
2019-04-29T08:12:25.195Z,11.50
2019-04-29T08:14:58.554Z,11.73
2019-04-29T08:17:24.076Z,9.70
2019-04-29T08:19:52.488Z,9.80
2019-04-29T08:22:31.648Z,9.30
2019-04-29T08:25:08.676Z,9.90
2019-04-29T08:27:43.304Z,10.23
2019-04-29T08:30:11.507Z,41.73
2019-04-29T08:32:40.388Z,33.77
2019-04-29T08:35:09.060Z,9.63
2019-04-29T08:37:37.548Z,9.87
2019-04-29T08:40:15.871Z,9.13
2019-04-29T08:42:41.379Z,8.40
2019-04-29T08:45:28.504Z,7.47
2019-04-29T08:47:57.428Z,8.10
2019-04-29T08:50:26.020Z,7.43
2019-04-29T08:52:54.489Z,7.70
2019-04-29T08:55:26.734Z,7.40
2019-04-29T08:57:53.121Z,7.10
2019-04-29T09:00:22.321Z,7.40
2019-04-29T09:03:43.280Z,7.07
2019-04-29T09:06:06.046Z,7.20
2019-04-29T09:08:35.458Z,7.50
2019-04-29T09:13:59.009Z,7.30
2019-04-29T09:16:28.285Z,7.23
2019-04-29T09:19:03.701Z,7.10
2019-04-29T09:21:32.713Z,6.80
2019-04-29T09:24:01.925Z,8.20
2019-04-29T09:26:47.913Z,6.50
2019-04-29T09:32:42.873Z,6.67
2019-04-29T09:35:11.969Z,6.70
2019-04-29T09:37:40.841Z,6.93
2019-04-29T09:40:11.851Z,5.63
2019-04-29T09:42:56.764Z,6.33
2019-04-29T09:45:42.263Z,6.37
2019-04-29T09:48:11.429Z,6.60
2019-04-29T09:50:41.037Z,6.63
2019-04-29T09:55:44.838Z,5.90
2019-04-29T09:58:33.436Z,5.33
2019-04-29T10:01:22.213Z,25.07
2019-04-29T10:03:59.615Z,5.67
2019-04-29T10:06:30.925Z,5.53
2019-04-29T10:08:59.958Z,5.10
2019-04-29T10:11:29.017Z,5.60
2019-04-29T10:13:58.066Z,5.47
2019-04-29T10:16:38.083Z,4.87
2019-04-29T10:19:29.230Z,5.20
2019-04-29T10:21:58.450Z,5.27
2019-04-29T10:25:04.106Z,5.20
2019-04-29T10:27:07.252Z,5.23
2019-04-29T10:29:36.818Z,4.80
2019-04-29T10:32:11.417Z,5.60
2019-04-29T10:34:43.122Z,5.27
2019-04-29T10:37:11.670Z,5.20
2019-04-29T10:39:46.226Z,6.60
2019-04-29T10:45:36.470Z,5.80
2019-04-29T10:48:24.954Z,5.77
2019-04-29T10:50:59.594Z,5.83
2019-04-29T10:53:29.025Z,5.83
2019-04-29T10:56:07.067Z,6.27
2019-04-29T10:59:34.983Z,5.50
2019-04-29T11:02:33.986Z,5.60
2019-04-29T11:05:29.471Z,5.20
2019-04-29T11:08:04.303Z,5.93
2019-04-29T11:10:33.936Z,5.40
2019-04-29T11:13:03.224Z,5.57
2019-04-29T11:15:35.207Z,5.27
2019-04-29T11:18:05.121Z,4.70
2019-04-29T11:20:37.467Z,4.80
2019-04-29T11:23:21.760Z,4.70
2019-04-29T11:26:23.575Z,4.47
2019-04-29T11:28:54.771Z,3.27
2019-04-29T11:31:24.869Z,3.37
2019-04-29T11:34:25.575Z,3.00
2019-04-29T11:36:54.743Z,2.87
2019-04-29T11:39:36.755Z,3.20
2019-04-29T11:42:36.761Z,2.90
2019-04-29T11:45:27.405Z,2.90
2019-04-29T11:47:59.680Z,3.13
2019-04-29T11:50:38.698Z,3.40
2019-04-29T11:53:07.804Z,4.17
2019-04-29T11:55:37.268Z,2.53
2019-04-29T11:58:23.291Z,3.37
2019-04-29T12:01:16.520Z,3.20
2019-04-29T12:03:46.249Z,2.80
2019-04-29T12:06:20.268Z,2.80
2019-04-29T12:08:48.052Z,2.87
2019-04-29T12:11:19.168Z,3.07
2019-04-29T12:14:13.524Z,3.13
2019-04-29T12:16:49.420Z,2.97
2019-04-29T12:19:24.944Z,3.57
2019-04-29T12:21:54.111Z,3.43
2019-04-29T12:24:23.247Z,3.33
2019-04-29T12:26:52.375Z,3.40
2019-04-29T12:29:21.627Z,3.20
2019-04-29T12:32:16.392Z,2.90
2019-04-29T12:35:04.533Z,3.37
2019-04-29T12:38:10.929Z,3.43
2019-04-29T12:40:57.966Z,3.67
2019-04-29T12:43:59.981Z,3.40
2019-04-29T12:46:37.048Z,3.53
2019-04-29T12:49:08.708Z,3.60
2019-04-29T12:51:36.877Z,3.77
2019-04-29T12:54:05.957Z,3.90
2019-04-29T12:56:37.129Z,4.17
2019-04-29T12:59:06.977Z,3.47
2019-04-29T13:02:04.815Z,4.20
2019-04-29T13:04:49.934Z,4.50
2019-04-29T13:07:34.129Z,3.77
2019-04-29T13:10:13.678Z,4.47
2019-04-29T13:12:44.472Z,4.67
2019-04-29T13:15:36.201Z,4.40
2019-04-29T13:18:29.631Z,4.70
2019-04-29T13:21:09.485Z,5.40
2019-04-29T13:23:34.682Z,6.30
2019-04-29T13:26:00.226Z,5.97
2019-04-29T13:28:30.882Z,5.97
2019-04-29T13:31:00.007Z,6.53
2019-04-29T13:33:29.285Z,5.90
2019-04-29T13:35:58.369Z,6.57
2019-04-29T13:38:27.774Z,6.37
2019-04-29T13:41:12.949Z,6.27
2019-04-29T13:43:28.178Z,6.20
2019-04-29T13:46:19.546Z,6.03
2019-04-29T13:49:14.158Z,6.47
2019-04-29T13:51:43.302Z,6.90
2019-04-29T13:54:12.358Z,6.87
2019-04-29T13:56:55.370Z,7.00
2019-04-29T13:59:14.434Z,6.83
2019-04-29T14:02:01.493Z,7.47
2019-04-29T14:04:46.734Z,7.40
2019-04-29T14:07:18.265Z,7.37
2019-04-29T14:09:47.908Z,8.33
2019-04-29T14:12:47.108Z,7.73
2019-04-29T14:14:47.654Z,8.87
2019-04-29T14:17:25.727Z,8.20
2019-04-29T14:19:47.602Z,8.53
2019-04-29T14:22:22.536Z,9.17
2019-04-29T14:24:47.580Z,9.43
2019-04-29T14:27:24.676Z,9.70
2019-04-29T14:29:47.351Z,9.27
2019-04-29T14:32:18.268Z,10.03
2019-04-29T14:35:02.007Z,9.43
2019-04-29T14:37:31.050Z,9.80
2019-04-29T14:40:02.837Z,9.63
2019-04-29T14:43:18.382Z,9.57
2019-04-29T14:45:57.047Z,8.43
2019-04-29T14:48:47.867Z,9.40
2019-04-29T14:51:16.951Z,9.83
2019-04-29T14:53:56.285Z,9.60
2019-04-29T14:56:16.985Z,9.90
2019-04-29T14:58:46.026Z,10.40
2019-04-29T15:01:27.007Z,11.17
2019-04-29T15:03:58.840Z,11.00
2019-04-29T15:06:28.967Z,10.87
2019-04-29T15:08:58.471Z,11.07
2019-04-29T15:11:32.791Z,11.00
2019-04-29T15:14:25.469Z,11.37
2019-04-29T15:17:00.917Z,12.37
2019-04-29T15:19:56.030Z,12.27
2019-04-29T15:22:28.740Z,11.97
2019-04-29T15:24:57.824Z,12.40
2019-04-29T15:27:27.144Z,12.97
2019-04-29T15:29:56.261Z,12.00
2019-04-29T15:32:28.494Z,12.17
2019-04-29T15:34:56.140Z,12.80
2019-04-29T15:37:25.474Z,12.53
2019-04-29T15:39:54.733Z,12.70
2019-04-29T15:42:25.200Z,12.43
2019-04-29T15:44:55.900Z,12.27
2019-04-29T15:47:30.657Z,12.90
2019-04-29T15:50:00.369Z,13.13
2019-04-29T15:52:27.699Z,13.37
2019-04-29T15:54:56.803Z,13.43
2019-04-29T15:57:25.910Z,12.90
2019-04-29T16:00:00.055Z,13.63
2019-04-29T16:02:25.923Z,13.40
2019-04-29T16:05:04.740Z,13.37
2019-04-29T16:07:55.873Z,13.40
2019-04-29T16:10:59.249Z,14.50
2019-04-29T16:13:29.543Z,14.17
2019-04-29T16:15:58.772Z,13.33
2019-04-29T16:18:27.818Z,13.87
2019-04-29T16:20:56.859Z,12.37
2019-04-29T16:23:25.855Z,13.27
2019-04-29T16:25:54.840Z,11.17
2019-04-29T16:28:30.944Z,11.90
2019-04-29T16:30:54.595Z,11.23
2019-04-29T16:33:23.558Z,11.70
2019-04-29T16:35:57.678Z,11.97
2019-04-29T16:38:23.351Z,11.30
2019-04-29T16:41:00.483Z,12.77
2019-04-29T16:43:35.503Z,12.87
2019-04-29T16:46:35.811Z,13.30
2019-04-29T16:49:00.796Z,13.60
2019-04-29T16:51:29.926Z,14.23
2019-04-29T16:53:59.020Z,15.10
2019-04-29T16:56:28.469Z,14.20
2019-04-29T16:58:57.526Z,13.70
2019-04-29T17:01:26.651Z,14.80
2019-04-29T17:03:55.747Z,14.43
2019-04-29T17:06:24.787Z,15.37
2019-04-29T17:09:23.265Z,14.00
2019-04-29T17:11:56.152Z,13.93
2019-04-29T17:14:24.571Z,13.10
2019-04-29T17:16:53.532Z,12.53
2019-04-29T17:19:23.317Z,11.60
2019-04-29T17:21:52.308Z,12.07
2019-04-29T17:24:21.376Z,11.03
2019-04-29T17:27:08.282Z,11.90
2019-04-29T17:30:03.529Z,11.70
2019-04-29T17:32:47.591Z,10.83
2019-04-29T17:35:21.212Z,10.20
2019-04-29T17:37:45.047Z,9.33
2019-04-29T17:40:15.268Z,9.50
2019-04-29T17:42:46.196Z,9.23
2019-04-29T17:45:27.129Z,9.60
2019-04-29T17:48:06.545Z,11.90
2019-04-29T17:50:49.437Z,11.23
2019-04-29T17:53:29.597Z,11.00
2019-04-29T17:56:07.757Z,11.43
2019-04-29T17:58:43.909Z,11.80
2019-04-29T18:01:27.213Z,10.73
2019-04-29T18:04:16.837Z,10.27
2019-04-29T18:06:59.024Z,11.20
2019-04-29T18:09:44.961Z,10.07
2019-04-29T18:12:22.785Z,9.83
2019-04-29T18:15:00.521Z,10.63
2019-04-29T18:17:33.677Z,10.50
2019-04-29T18:20:30.744Z,11.00
2019-04-29T18:23:25.701Z,11.43
2019-04-29T18:25:58.734Z,12.27
2019-04-29T18:28:27.833Z,12.00
2019-04-29T18:30:57.950Z,11.63
2019-04-29T18:33:30.267Z,11.17
2019-04-29T18:36:04.485Z,11.83
2019-04-29T18:38:29.421Z,11.87
2019-04-29T18:40:58.413Z,12.60
2019-04-29T18:43:27.713Z,13.13
2019-04-29T18:45:59.053Z,12.93
2019-04-29T18:48:27.312Z,13.40
2019-04-29T18:50:57.068Z,13.60
2019-04-29T18:53:26.274Z,13.20
2019-04-29T18:55:55.357Z,13.77
2019-04-29T18:58:25.018Z,14.10
2019-04-29T19:00:56.341Z,14.10
2019-04-29T19:03:40.081Z,13.70
2019-04-29T19:06:10.386Z,13.40
2019-04-29T19:08:39.902Z,14.23
2019-04-29T19:11:08.930Z,14.40
2019-04-29T19:13:37.955Z,13.27
2019-04-29T19:16:10.251Z,14.03
2019-04-29T19:18:38.075Z,14.37
2019-04-29T19:21:07.062Z,13.60
2019-04-29T19:23:36.486Z,14.20
2019-04-29T19:26:05.493Z,15.07
2019-04-29T19:28:36.834Z,16.07
2019-04-29T19:31:09.354Z,16.00
2019-04-29T19:33:39.310Z,17.17
2019-04-29T19:36:09.124Z,17.27
2019-04-29T19:38:37.895Z,17.17
2019-04-29T19:41:06.879Z,16.60
2019-04-29T19:43:36.018Z,16.23
2019-04-29T19:46:05.844Z,17.23
2019-04-29T19:48:36.670Z,16.60
2019-04-29T19:51:14.834Z,15.77
2019-04-29T19:53:42.601Z,16.20
2019-04-29T19:56:07.789Z,16.77
2019-04-29T19:58:38.923Z,16.10
2019-04-29T20:01:13.455Z,15.67
2019-04-29T20:03:49.830Z,15.80
2019-04-29T20:06:24.896Z,15.83
2019-04-29T20:08:54.677Z,16.03
2019-04-29T20:11:19.405Z,16.50
2019-04-29T20:14:02.158Z,16.83
2019-04-29T20:16:44.604Z,16.53
2019-04-29T20:19:37.416Z,16.90
2019-04-29T20:22:09.348Z,16.33
2019-04-29T20:24:37.610Z,16.57
2019-04-29T20:27:06.756Z,15.97
2019-04-29T20:29:38.450Z,16.30
2019-04-29T20:32:07.910Z,15.67
2019-04-29T20:34:37.637Z,16.50
2019-04-29T20:37:10.795Z,15.43
2019-04-29T20:39:37.827Z,16.33
2019-04-29T20:42:10.202Z,15.70
2019-04-29T20:44:44.531Z,15.50
2019-04-29T20:47:19.089Z,15.37
2019-04-29T20:49:39.914Z,15.07
2019-04-29T20:52:25.946Z,15.00
2019-04-29T20:55:00.832Z,14.20
2019-04-29T20:57:27.727Z,15.57
2019-04-29T20:59:56.977Z,14.90
2019-04-29T21:02:31.438Z,15.60
2019-04-29T21:04:58.269Z,15.17
2019-04-29T21:07:27.838Z,15.57
2019-04-29T21:09:59.939Z,16.13
2019-04-29T21:12:51.323Z,15.93
2019-04-29T21:15:29.080Z,16.30
2019-04-29T21:17:58.706Z,16.73
2019-04-29T21:20:27.853Z,15.73
2019-04-29T21:23:00.859Z,15.53
2019-04-29T21:25:29.429Z,16.30
2019-04-29T21:28:02.266Z,17.73
2019-04-29T21:30:35.558Z,17.20
2019-04-29T21:32:59.779Z,18.03
2019-04-29T21:35:35.912Z,18.00
2019-04-29T21:38:17.874Z,18.70
2019-04-29T21:40:53.128Z,20.73
2019-04-29T21:43:26.128Z,20.47
2019-04-29T21:45:55.630Z,22.20
2019-04-29T21:48:33.125Z,20.57
2019-04-29T21:50:55.781Z,21.30
2019-04-29T21:53:25.194Z,21.30
2019-04-29T21:55:55.424Z,21.53
2019-04-29T21:58:28.707Z,20.37
2019-04-29T22:00:59.062Z,20.00
2019-04-29T22:03:28.419Z,21.40
2019-04-29T22:05:58.966Z,19.77
2019-04-29T22:08:30.082Z,19.97
2019-04-29T22:11:04.796Z,20.23
2019-04-29T22:13:30.676Z,20.83
2019-04-29T22:16:01.120Z,19.13
2019-04-29T22:18:30.506Z,19.33
2019-04-29T22:20:59.537Z,19.67
2019-04-29T22:23:28.521Z,19.83
2019-04-29T22:25:57.471Z,19.03
2019-04-29T22:28:26.564Z,19.93
2019-04-29T22:30:56.247Z,20.13
2019-04-29T22:33:25.384Z,20.37
2019-04-29T22:35:56.116Z,19.47
2019-04-29T22:38:25.100Z,19.43
2019-04-29T22:40:56.017Z,18.60
2019-04-29T22:43:44.544Z,20.73
2019-04-29T22:46:11.380Z,20.10
2019-04-29T22:48:40.538Z,21.37
2019-04-29T22:51:15.097Z,19.83
2019-04-29T22:53:46.709Z,20.60
2019-04-29T22:56:14.122Z,21.30
2019-04-29T22:58:44.179Z,21.43
2019-04-29T23:01:15.602Z,22.17
2019-04-29T23:03:45.104Z,21.43
2019-04-29T23:06:15.817Z,21.20
2019-04-29T23:08:45.019Z,21.83
2019-04-29T23:11:14.185Z,21.57
2019-04-29T23:13:43.237Z,22.27
2019-04-29T23:16:12.286Z,22.73
2019-04-29T23:18:42.327Z,22.17
2019-04-29T23:21:49.453Z,23.13
2019-04-29T23:24:32.216Z,22.90
2019-04-29T23:27:01.200Z,22.30
2019-04-29T23:29:30.150Z,21.93
2019-04-29T23:31:59.818Z,21.83
2019-04-29T23:34:29.974Z,21.50
2019-04-29T23:36:58.858Z,21.30
2019-04-29T23:39:28.046Z,21.23
2019-04-29T23:41:56.934Z,22.40
2019-04-29T23:44:26.182Z,22.87
2019-04-29T23:46:55.054Z,21.97
2019-04-29T23:49:25.021Z,21.83
2019-04-29T23:51:54.122Z,21.97
2019-04-29T23:54:24.850Z,21.87
2019-04-29T23:57:27.135Z,22.37
